createdAt,value
2022-08-05T00:00:54.599Z,58.20
2022-08-05T00:02:07.635Z,58.11
2022-08-05T00:03:15.487Z,58.30
2022-08-05T00:04:18.787Z,58.36
2022-08-05T00:06:01.458Z,58.31
2022-08-05T00:06:45.439Z,58.49
2022-08-05T00:08:00.336Z,58.00
2022-08-05T00:09:04.468Z,58.54
2022-08-05T00:10:15.911Z,58.01
2022-08-05T00:11:23.898Z,57.97
2022-08-05T00:12:33.609Z,58.10
2022-08-05T00:13:53.127Z,58.67
2022-08-05T00:14:56.179Z,58.76
2022-08-05T00:16:00.320Z,58.43
2022-08-05T00:17:04.446Z,58.62
2022-08-05T00:18:22.607Z,58.81
2022-08-05T00:19:33.776Z,58.84
2022-08-05T00:20:49.041Z,58.70
2022-08-05T00:21:52.078Z,58.75
2022-08-05T00:22:59.696Z,58.61
2022-08-05T00:24:10.590Z,58.57
2022-08-05T00:25:14.375Z,58.74
2022-08-05T00:26:20.011Z,58.97
2022-08-05T00:27:23.010Z,58.77
2022-08-05T00:28:39.165Z,58.75
2022-08-05T00:29:42.972Z,58.65
2022-08-05T00:30:46.379Z,58.63
2022-08-05T00:32:13.039Z,56.85
2022-08-05T00:34:54.018Z,56.26
2022-08-05T00:35:04.686Z,56.04
2022-08-05T00:36:15.209Z,56.34
2022-08-05T00:37:50.449Z,56.63
2022-08-05T00:38:51.811Z,56.99
2022-08-05T00:39:58.812Z,57.04
2022-08-05T00:41:02.117Z,56.81
2022-08-05T00:42:05.157Z,57.18
2022-08-05T00:43:08.019Z,57.34
2022-08-05T00:44:10.927Z,57.49
2022-08-05T00:45:14.335Z,57.53
2022-08-05T00:46:17.230Z,57.81
2022-08-05T00:47:56.367Z,58.09
2022-08-05T00:49:00.493Z,58.37
2022-08-05T00:50:03.605Z,58.34
2022-08-05T00:51:51.139Z,58.18
2022-08-05T00:52:31.944Z,58.55
2022-08-05T00:54:00.206Z,58.91
2022-08-05T00:55:05.008Z,59.70
2022-08-05T00:56:08.451Z,59.43
2022-08-05T00:57:12.003Z,59.14
2022-08-05T00:58:17.012Z,59.47
2022-08-05T00:59:22.395Z,59.40
2022-08-05T01:00:26.100Z,59.71
2022-08-05T01:01:42.533Z,59.41
2022-08-05T01:02:51.292Z,59.96
2022-08-05T01:03:55.950Z,60.12
2022-08-05T01:04:59.220Z,60.03
2022-08-05T01:06:02.590Z,60.18
2022-08-05T01:07:06.863Z,60.20
2022-08-05T01:08:42.581Z,59.03
2022-08-05T01:09:39.402Z,57.78
2022-08-05T01:10:58.099Z,58.51
2022-08-05T01:12:18.242Z,59.52
2022-08-05T01:13:27.168Z,59.38
2022-08-05T01:14:35.251Z,59.91
2022-08-05T01:15:47.864Z,60.25
2022-08-05T01:16:54.743Z,60.68
2022-08-05T01:18:01.788Z,61.30
2022-08-05T01:19:20.236Z,61.76
2022-08-05T01:20:41.412Z,62.70
2022-08-05T01:22:02.946Z,62.69
2022-08-05T01:23:14.365Z,62.44
2022-08-05T01:24:45.876Z,62.73
2022-08-05T01:25:53.803Z,62.69
2022-08-05T01:27:17.533Z,62.21
2022-08-05T01:28:22.518Z,61.86
2022-08-05T01:29:29.484Z,61.78
2022-08-05T01:32:00.795Z,62.33
2022-08-05T01:33:08.281Z,61.73
2022-08-05T01:34:21.618Z,61.19
2022-08-05T01:35:51.318Z,61.45
2022-08-05T01:37:00.458Z,61.11
2022-08-05T01:38:04.368Z,61.30
2022-08-05T01:39:07.531Z,61.14
2022-08-05T01:40:12.690Z,60.84
2022-08-05T01:41:17.525Z,60.62
2022-08-05T01:42:25.796Z,60.61
2022-08-05T01:43:30.737Z,60.52
2022-08-05T01:44:36.434Z,60.49
2022-08-05T01:45:43.071Z,60.46
2022-08-05T01:46:46.910Z,60.57
2022-08-05T01:47:54.480Z,60.46
2022-08-05T01:49:01.016Z,60.46
2022-08-05T01:50:29.641Z,60.47
2022-08-05T01:51:35.477Z,60.53
2022-08-05T01:52:42.466Z,60.44
2022-08-05T01:53:57.663Z,60.53
2022-08-05T01:55:04.480Z,60.61
2022-08-05T01:56:09.532Z,60.60
2022-08-05T01:58:10.638Z,60.59
2022-08-05T01:58:44.685Z,60.58
2022-08-05T01:59:54.980Z,60.63
2022-08-05T02:00:59.601Z,60.52
2022-08-05T02:02:03.024Z,60.61
2022-08-05T02:03:31.531Z,60.73
2022-08-05T02:04:37.173Z,60.63
2022-08-05T02:05:45.181Z,60.60
2022-08-05T02:06:51.240Z,60.56
2022-08-05T02:07:59.797Z,60.60
2022-08-05T02:09:05.672Z,60.52
2022-08-05T02:10:10.426Z,60.53
2022-08-05T02:11:23.855Z,60.47
2022-08-05T02:12:42.607Z,60.49
2022-08-05T02:13:53.466Z,60.54
2022-08-05T02:15:19.892Z,60.44
2022-08-05T02:16:23.037Z,59.90
2022-08-05T02:18:27.885Z,59.57
2022-08-05T02:18:59.019Z,59.64
2022-08-05T02:20:03.455Z,59.62
2022-08-05T02:21:14.717Z,59.80
2022-08-05T02:22:25.796Z,60.60
2022-08-05T02:23:33.617Z,60.63
2022-08-05T02:24:38.149Z,61.88
2022-08-05T02:25:49.699Z,61.92
2022-08-05T02:26:56.219Z,61.84
2022-08-05T02:28:00.584Z,61.35
2022-08-05T02:29:04.739Z,61.96
2022-08-05T02:30:09.093Z,62.22
2022-08-05T02:31:16.646Z,62.82
2022-08-05T02:32:30.938Z,63.74
2022-08-05T02:33:38.850Z,63.85
2022-08-05T02:34:43.798Z,63.88
2022-08-05T02:36:01.341Z,63.57
2022-08-05T02:37:08.180Z,63.07
2022-08-05T02:38:13.332Z,62.94
2022-08-05T02:39:23.171Z,62.86
2022-08-05T02:40:27.551Z,62.64
2022-08-05T02:41:43.361Z,62.66
2022-08-05T02:42:55.728Z,62.30
2022-08-05T02:44:02.243Z,62.27
2022-08-05T02:45:10.259Z,61.85
2022-08-05T02:46:16.482Z,61.92
2022-08-05T02:47:21.040Z,61.94
2022-08-05T02:48:29.070Z,61.88
2022-08-05T02:49:40.368Z,61.67
2022-08-05T02:50:47.366Z,61.57
2022-08-05T02:52:03.025Z,61.55
2022-08-05T02:53:11.791Z,61.53
2022-08-05T02:54:34.856Z,61.69
2022-08-05T02:55:54.942Z,61.49
2022-08-05T02:57:03.094Z,61.37
2022-08-05T02:58:11.015Z,61.22
2022-08-05T02:59:17.339Z,61.20
2022-08-05T03:00:21.612Z,61.28
2022-08-05T03:01:25.614Z,60.94
2022-08-05T03:02:33.993Z,60.50
2022-08-05T03:04:04.391Z,60.93
2022-08-05T03:05:04.167Z,60.62
2022-08-05T03:06:55.754Z,60.92
2022-08-05T03:08:01.604Z,60.98
2022-08-05T03:08:55.026Z,60.91
2022-08-05T03:09:59.478Z,60.89
2022-08-05T03:11:57.149Z,60.90
2022-08-05T03:12:31.160Z,60.82
2022-08-05T03:13:51.731Z,60.78
2022-08-05T03:14:57.355Z,60.88
2022-08-05T03:16:00.250Z,60.93
2022-08-05T03:17:07.366Z,60.87
2022-08-05T03:18:12.326Z,60.88
2022-08-05T03:19:33.015Z,60.91
2022-08-05T03:20:38.274Z,60.67
2022-08-05T03:21:49.624Z,60.74
2022-08-05T03:22:57.276Z,60.77
2022-08-05T03:24:01.063Z,60.73
2022-08-05T03:26:03.418Z,60.78
2022-08-05T03:26:32.281Z,60.70
2022-08-05T03:27:57.971Z,60.71
2022-08-05T03:28:59.125Z,60.66
2022-08-05T03:30:07.746Z,60.66
2022-08-05T03:31:55.360Z,60.63
2022-08-05T03:32:35.994Z,60.65
2022-08-05T03:33:52.693Z,60.61
2022-08-05T03:34:56.271Z,60.48
2022-08-05T03:35:59.733Z,60.51
2022-08-05T03:37:03.675Z,60.55
2022-08-05T03:38:06.850Z,60.54
2022-08-05T03:39:13.026Z,60.54
2022-08-05T03:40:31.137Z,60.48
2022-08-05T03:41:45.164Z,60.46
2022-08-05T03:42:52.441Z,60.48
2022-08-05T03:44:08.335Z,60.36
2022-08-05T03:45:21.586Z,60.31
2022-08-05T03:46:26.797Z,60.21
2022-08-05T03:47:35.390Z,60.19
2022-08-05T03:48:45.362Z,60.23
2022-08-05T03:49:51.449Z,60.24
2022-08-05T03:52:35.374Z,60.11
2022-08-05T03:54:59.099Z,59.97
2022-08-05T03:55:54.083Z,60.05
2022-08-05T03:56:04.332Z,59.93
2022-08-05T03:57:16.695Z,59.87
2022-08-05T03:58:22.960Z,59.83
2022-08-05T03:59:47.080Z,59.72
2022-08-05T04:01:00.089Z,59.44
2022-08-05T04:02:04.096Z,59.47
2022-08-05T04:03:26.621Z,59.39
2022-08-05T04:04:32.830Z,58.62
2022-08-05T04:05:36.330Z,58.35
2022-08-05T04:06:47.648Z,58.17
2022-08-05T04:07:58.295Z,58.32
2022-08-05T04:09:02.597Z,58.71
2022-08-05T04:10:07.365Z,58.71
2022-08-05T04:11:11.193Z,59.13
2022-08-05T04:12:24.759Z,58.41
2022-08-05T04:13:49.837Z,58.39
2022-08-05T04:14:51.634Z,59.09
2022-08-05T04:16:04.434Z,58.65
2022-08-05T04:17:08.876Z,58.34
2022-08-05T04:18:20.573Z,58.12
2022-08-05T04:19:25.732Z,57.93
2022-08-05T04:20:28.661Z,57.82
2022-08-05T04:22:09.509Z,57.82
2022-08-05T04:22:54.977Z,58.08
2022-08-05T04:24:05.998Z,58.27
2022-08-05T04:25:11.962Z,58.46
2022-08-05T04:26:18.195Z,57.82
2022-08-05T04:27:41.662Z,57.68
2022-08-05T04:28:51.671Z,58.94
2022-08-05T04:29:55.199Z,58.13
2022-08-05T04:30:58.218Z,58.67
2022-08-05T04:32:03.939Z,59.12
2022-08-05T04:33:06.931Z,59.10
2022-08-05T04:34:18.330Z,59.33
2022-08-05T04:36:10.945Z,58.52
2022-08-05T04:36:57.388Z,58.68
2022-08-05T04:38:02.603Z,58.67
2022-08-05T04:39:09.626Z,59.66
2022-08-05T04:40:14.421Z,59.33
2022-08-05T04:41:22.800Z,59.56
2022-08-05T04:42:40.049Z,59.93
2022-08-05T04:43:48.042Z,59.72
2022-08-05T04:44:55.142Z,59.29
2022-08-05T04:45:58.041Z,59.12
2022-08-05T04:47:09.933Z,58.87
2022-08-05T04:48:18.525Z,58.93
2022-08-05T04:49:38.446Z,59.05
2022-08-05T04:51:03.750Z,59.00
2022-08-05T04:52:15.093Z,58.71
2022-08-05T04:53:18.675Z,58.70
2022-08-05T04:54:22.357Z,58.63
2022-08-05T04:56:15.086Z,58.41
2022-08-05T04:56:50.103Z,58.28
2022-08-05T04:57:56.635Z,58.22
2022-08-05T04:58:59.691Z,58.30
2022-08-05T05:00:23.314Z,58.25
2022-08-05T05:02:08.117Z,58.11
2022-08-05T05:02:50.575Z,58.11
2022-08-05T05:03:53.668Z,57.92
2022-08-05T05:05:01.623Z,57.77
2022-08-05T05:06:40.591Z,57.71
2022-08-05T05:07:29.722Z,57.65
2022-08-05T05:08:36.577Z,57.52
2022-08-05T05:09:46.014Z,57.36
2022-08-05T05:10:56.156Z,57.31
2022-08-05T05:12:02.928Z,57.30
2022-08-05T05:13:06.163Z,57.16
2022-08-05T05:14:10.551Z,57.15
2022-08-05T05:15:56.371Z,56.93
2022-08-05T05:16:42.349Z,56.88
2022-08-05T05:17:56.444Z,56.75
2022-08-05T05:19:18.776Z,56.61
2022-08-05T05:20:22.637Z,56.55
2022-08-05T05:21:33.118Z,56.39
2022-08-05T05:22:36.206Z,56.23
2022-08-05T05:24:04.075Z,56.20
2022-08-05T05:25:16.600Z,56.22
2022-08-05T05:26:28.122Z,55.97
2022-08-05T05:27:45.911Z,55.78
2022-08-05T05:28:51.771Z,55.81
2022-08-05T05:30:04.971Z,55.67
2022-08-05T05:31:08.935Z,55.49
2022-08-05T05:32:12.555Z,54.00
2022-08-05T05:33:23.317Z,54.21
2022-08-05T05:34:27.321Z,53.85
2022-08-05T05:35:38.133Z,53.58
2022-08-05T05:36:42.732Z,53.80
2022-08-05T05:37:59.558Z,53.38
2022-08-05T05:39:04.401Z,54.37
2022-08-05T05:40:07.844Z,54.49
2022-08-05T05:41:10.894Z,54.36
2022-08-05T05:42:15.150Z,54.21
2022-08-05T05:43:27.630Z,54.12
2022-08-05T05:44:44.405Z,53.83
2022-08-05T05:45:49.265Z,54.00
2022-08-05T05:46:52.177Z,53.63
2022-08-05T05:48:07.088Z,53.78
2022-08-05T05:49:22.965Z,53.41
2022-08-05T05:50:26.451Z,53.11
2022-08-05T05:51:29.424Z,53.24
2022-08-05T05:52:52.927Z,53.73
2022-08-05T05:53:59.491Z,53.29
2022-08-05T05:55:07.532Z,53.28
2022-08-05T05:56:16.824Z,53.29
2022-08-05T05:57:51.885Z,53.25
2022-08-05T05:58:55.483Z,53.31
2022-08-05T05:59:58.746Z,53.19
2022-08-05T06:01:12.798Z,53.17
2022-08-05T06:02:32.727Z,53.70
2022-08-05T06:04:00.833Z,53.61
2022-08-05T06:05:10.453Z,53.50
2022-08-05T06:06:19.919Z,53.52
2022-08-05T06:07:41.353Z,53.55
2022-08-05T06:08:49.228Z,53.35
2022-08-05T06:10:01.515Z,53.58
2022-08-05T06:11:08.838Z,53.00
2022-08-05T06:12:16.572Z,52.76
2022-08-05T06:13:22.552Z,52.24
2022-08-05T06:14:27.891Z,52.45
2022-08-05T06:16:30.644Z,52.21
2022-08-05T06:16:54.665Z,51.94
2022-08-05T06:18:00.083Z,51.89
2022-08-05T06:19:05.924Z,51.86
2022-08-05T06:20:21.432Z,52.22
2022-08-05T06:21:24.782Z,52.08
2022-08-05T06:22:40.535Z,51.95
2022-08-05T06:23:45.537Z,52.15
2022-08-05T06:24:52.751Z,52.09
2022-08-05T06:26:13.360Z,52.02
2022-08-05T06:28:10.932Z,52.55
2022-08-05T06:28:42.154Z,52.51
2022-08-05T06:29:51.926Z,52.46
2022-08-05T06:31:11.312Z,52.52
2022-08-05T06:32:28.635Z,52.39
2022-08-05T06:33:52.258Z,52.15
2022-08-05T06:34:57.207Z,51.86
2022-08-05T06:36:07.556Z,51.29
2022-08-05T06:37:13.342Z,51.49
2022-08-05T06:38:17.726Z,51.77
2022-08-05T06:39:39.552Z,51.98
2022-08-05T06:40:44.878Z,51.96
2022-08-05T06:41:49.424Z,52.02
2022-08-05T06:42:52.895Z,52.02
2022-08-05T06:44:00.271Z,52.04
2022-08-05T06:45:05.494Z,52.00
2022-08-05T06:46:11.922Z,51.76
2022-08-05T06:47:30.110Z,51.69
2022-08-05T06:48:52.816Z,51.57
2022-08-05T06:50:05.181Z,50.95
2022-08-05T06:51:09.606Z,50.74
2022-08-05T06:52:37.982Z,50.68
2022-08-05T06:53:39.422Z,51.29
2022-08-05T06:54:42.458Z,51.25
2022-08-05T06:55:46.030Z,50.99
2022-08-05T06:56:55.118Z,50.88
2022-08-05T06:58:29.580Z,50.88
2022-08-05T06:59:38.801Z,50.60
2022-08-05T07:00:45.513Z,50.86
2022-08-05T07:01:50.452Z,50.91
2022-08-05T07:02:56.108Z,50.59
2022-08-05T07:03:59.445Z,50.20
2022-08-05T07:05:02.468Z,50.35
2022-08-05T07:06:14.135Z,50.24
2022-08-05T07:07:24.158Z,50.17
2022-08-05T07:08:47.660Z,50.07
2022-08-05T07:09:55.524Z,50.05
2022-08-05T07:11:01.929Z,49.48
2022-08-05T07:12:05.092Z,49.59
2022-08-05T07:13:54.283Z,49.85
2022-08-05T07:15:09.473Z,49.86
2022-08-05T07:17:56.977Z,49.78
2022-08-05T07:18:01.904Z,49.96
2022-08-05T07:19:11.177Z,50.07
2022-08-05T07:20:37.037Z,50.04
2022-08-05T07:22:00.230Z,48.80
2022-08-05T07:23:04.540Z,48.69
2022-08-05T07:24:11.198Z,48.12
2022-08-05T07:25:54.190Z,48.39
2022-08-05T07:26:37.547Z,47.95
2022-08-05T07:27:57.543Z,47.83
2022-08-05T07:29:03.758Z,48.05
2022-08-05T07:30:27.212Z,48.21
2022-08-05T07:31:40.952Z,47.38
2022-08-05T07:32:53.557Z,47.74
2022-08-05T07:33:56.542Z,47.82
2022-08-05T07:36:01.554Z,48.20
2022-08-05T07:36:30.305Z,46.63
2022-08-05T07:37:36.179Z,46.41
2022-08-05T07:38:44.195Z,46.71
2022-08-05T07:40:26.887Z,46.80
2022-08-05T07:42:07.409Z,46.70
2022-08-05T07:42:36.391Z,46.01
2022-08-05T07:43:39.417Z,46.19
2022-08-05T07:44:46.223Z,47.03
2022-08-05T07:45:57.555Z,47.42
2022-08-05T07:47:01.463Z,46.73
2022-08-05T07:48:11.288Z,46.40
2022-08-05T07:49:16.317Z,46.42
2022-08-05T07:50:28.872Z,46.93
2022-08-05T07:51:40.942Z,47.02
2022-08-05T07:52:57.250Z,46.35
2022-08-05T07:54:01.766Z,45.60
2022-08-05T07:55:16.011Z,45.70
2022-08-05T07:56:59.842Z,46.51
2022-08-05T07:58:02.430Z,45.00
2022-08-05T07:59:08.590Z,44.72
2022-08-05T08:00:14.410Z,44.63
2022-08-05T08:01:17.987Z,44.12
2022-08-05T08:02:26.700Z,44.33
2022-08-05T08:03:44.290Z,45.06
2022-08-05T08:04:49.198Z,45.61
2022-08-05T08:05:52.650Z,45.78
2022-08-05T08:06:56.150Z,45.77
2022-08-05T08:08:00.720Z,44.60
2022-08-05T08:09:03.930Z,44.31
2022-08-05T08:10:08.823Z,44.60
2022-08-05T08:11:15.865Z,45.38
2022-08-05T08:12:35.083Z,43.70
2022-08-05T08:13:49.298Z,43.38
2022-08-05T08:15:04.345Z,42.74
2022-08-05T08:16:35.000Z,43.05
2022-08-05T08:17:31.017Z,42.63
2022-08-05T08:18:34.007Z,42.97
2022-08-05T08:20:10.719Z,43.29
2022-08-05T08:21:03.564Z,43.23
2022-08-05T08:22:09.018Z,43.46
2022-08-05T08:24:02.727Z,42.67
2022-08-05T08:24:51.848Z,42.04
2022-08-05T08:26:00.349Z,42.94
2022-08-05T08:27:07.031Z,43.85
2022-08-05T08:28:18.368Z,43.91
2022-08-05T08:30:04.059Z,42.28
2022-08-05T08:30:47.817Z,40.33
2022-08-05T08:31:53.278Z,41.33
2022-08-05T08:32:56.242Z,42.16
2022-08-05T08:34:00.209Z,41.68
2022-08-05T08:35:03.321Z,39.92
2022-08-05T08:37:31.012Z,39.88
2022-08-05T08:38:39.535Z,40.50
2022-08-05T08:39:49.501Z,39.70
2022-08-05T08:40:53.094Z,39.96
2022-08-05T08:42:02.259Z,39.96
2022-08-05T08:44:54.757Z,40.52
2022-08-05T08:45:16.625Z,39.09
2022-08-05T08:45:56.731Z,37.44
2022-08-05T08:47:01.409Z,37.00
2022-08-05T08:48:12.475Z,37.00
2022-08-05T08:50:22.656Z,36.41
2022-08-05T08:51:22.134Z,36.56
2022-08-05T08:52:19.795Z,36.43
2022-08-05T08:53:24.852Z,36.98
2022-08-05T08:54:30.802Z,36.55
2022-08-05T08:56:03.919Z,36.14
2022-08-05T08:56:59.317Z,35.85
2022-08-05T08:58:02.713Z,36.09
2022-08-05T08:59:14.648Z,35.76
2022-08-05T09:00:22.827Z,36.02
2022-08-05T09:01:26.214Z,36.29
2022-08-05T09:02:29.517Z,36.40
2022-08-05T09:03:39.455Z,35.96
2022-08-05T09:05:16.346Z,36.16
2022-08-05T09:06:13.066Z,35.97
2022-08-05T09:07:29.195Z,36.26
2022-08-05T09:08:42.563Z,36.04
2022-08-05T09:09:47.506Z,35.62
2022-08-05T09:10:53.298Z,35.75
2022-08-05T09:12:01.270Z,35.75
2022-08-05T09:13:15.450Z,36.29
2022-08-05T09:14:56.855Z,36.11
2022-08-05T09:15:41.853Z,35.65
2022-08-05T09:16:48.857Z,35.46
2022-08-05T09:17:53.063Z,35.06
2022-08-05T09:18:56.163Z,35.19
2022-08-05T09:20:05.471Z,34.25
2022-08-05T09:21:11.619Z,35.22
2022-08-05T09:22:31.923Z,34.35
2022-08-05T09:23:43.622Z,34.25
2022-08-05T09:25:13.653Z,33.57
2022-08-05T09:26:32.326Z,33.88
2022-08-05T09:28:05.019Z,34.34
2022-08-05T09:29:04.592Z,34.21
2022-08-05T09:30:07.973Z,34.29
2022-08-05T09:31:43.534Z,34.22
2022-08-05T09:32:46.502Z,34.41
2022-08-05T09:33:55.090Z,34.56
2022-08-05T09:35:02.588Z,34.32
2022-08-05T09:36:11.791Z,34.43
2022-08-05T09:38:18.484Z,34.46
2022-08-05T09:38:59.748Z,34.18
2022-08-05T09:40:03.446Z,34.36
2022-08-05T09:41:08.728Z,34.04
2022-08-05T09:42:17.400Z,33.93
2022-08-05T09:43:28.179Z,34.10
2022-08-05T09:44:49.466Z,34.19
2022-08-05T09:46:06.525Z,34.24
2022-08-05T09:47:15.460Z,34.51
2022-08-05T09:48:29.486Z,34.30
2022-08-05T09:50:01.375Z,34.08
2022-08-05T09:50:58.137Z,33.71
2022-08-05T09:52:16.499Z,34.19
2022-08-05T09:53:25.803Z,34.56
2022-08-05T09:54:35.488Z,33.96
2022-08-05T09:55:58.138Z,34.30
2022-08-05T09:57:02.025Z,32.69
2022-08-05T09:58:12.457Z,32.27
2022-08-05T09:59:17.515Z,32.00
2022-08-05T10:00:24.649Z,32.64
2022-08-05T10:01:31.724Z,32.64
2022-08-05T10:02:36.742Z,32.40
2022-08-05T10:03:58.904Z,32.32
2022-08-05T10:05:08.010Z,31.72
2022-08-05T10:06:15.500Z,31.90
2022-08-05T10:07:20.847Z,32.37
2022-08-05T10:08:42.368Z,32.58
2022-08-05T10:10:13.939Z,32.30
2022-08-05T10:11:17.944Z,31.99
2022-08-05T10:12:33.676Z,31.85
2022-08-05T10:13:47.861Z,31.65
2022-08-05T10:14:54.323Z,31.95
2022-08-05T10:15:58.666Z,32.05
2022-08-05T10:17:36.819Z,32.39
2022-08-05T10:18:38.515Z,32.50
2022-08-05T10:20:04.223Z,32.66
2022-08-05T10:21:11.852Z,32.64
2022-08-05T10:22:29.706Z,32.42
2022-08-05T10:23:55.209Z,32.63
2022-08-05T10:24:56.402Z,32.34
2022-08-05T10:26:00.958Z,32.50
2022-08-05T10:27:04.202Z,32.61
2022-08-05T10:28:17.074Z,32.83
2022-08-05T10:29:24.030Z,33.07
2022-08-05T10:32:49.269Z,33.10
2022-08-05T10:32:54.223Z,33.14
2022-08-05T10:33:35.256Z,32.50
2022-08-05T10:34:40.698Z,32.26
2022-08-05T10:35:45.428Z,32.52
2022-08-05T10:36:50.631Z,33.33
2022-08-05T10:37:54.981Z,33.32
2022-08-05T10:39:05.270Z,32.25
2022-08-05T10:40:34.980Z,32.39
2022-08-05T10:42:08.156Z,31.80
2022-08-05T10:43:14.731Z,32.23
2022-08-05T10:44:19.068Z,32.38
2022-08-05T10:45:41.890Z,31.56
2022-08-05T10:46:46.886Z,30.65
2022-08-05T10:48:29.681Z,30.82
2022-08-05T10:49:17.679Z,31.93
2022-08-05T10:50:36.589Z,32.29
2022-08-05T10:51:48.675Z,29.74
2022-08-05T10:53:02.563Z,29.88
2022-08-05T10:54:31.096Z,29.55
2022-08-05T10:55:38.484Z,29.48
2022-08-05T10:56:58.499Z,29.83
2022-08-05T10:58:09.534Z,30.20
2022-08-05T11:00:04.398Z,30.28
2022-08-05T11:00:55.330Z,30.43
2022-08-05T11:02:06.978Z,30.28
2022-08-05T11:03:24.981Z,31.14
2022-08-05T11:04:30.752Z,30.99
2022-08-05T11:05:34.474Z,30.04
2022-08-05T11:06:58.436Z,29.64
2022-08-05T11:08:27.572Z,29.84
2022-08-05T11:09:45.770Z,29.10
2022-08-05T11:11:01.132Z,29.25
2022-08-05T11:12:26.630Z,29.74
2022-08-05T11:13:57.655Z,29.53
2022-08-05T11:15:20.502Z,29.33
2022-08-05T11:16:33.807Z,29.33
2022-08-05T11:17:59.228Z,29.78
2022-08-05T11:20:10.821Z,29.98
2022-08-05T11:20:46.166Z,29.40
2022-08-05T11:21:49.758Z,28.87
2022-08-05T11:22:54.842Z,28.86
2022-08-05T11:24:14.814Z,28.99
2022-08-05T11:26:05.322Z,29.19
2022-08-05T11:27:17.089Z,28.70
2022-08-05T11:28:20.014Z,28.16
2022-08-05T11:29:40.288Z,29.04
2022-08-05T11:31:12.335Z,27.28
2022-08-05T11:32:35.323Z,27.36
2022-08-05T11:33:46.062Z,26.46
2022-08-05T11:34:54.096Z,26.66
2022-08-05T11:36:08.779Z,26.74
2022-08-05T11:38:29.841Z,26.72
2022-08-05T11:38:57.866Z,26.64
2022-08-05T11:40:03.627Z,26.59
2022-08-05T11:41:56.235Z,26.68
2022-08-05T11:42:41.206Z,27.15
2022-08-05T11:44:05.933Z,26.80
2022-08-05T11:45:26.766Z,27.30
2022-08-05T11:47:09.422Z,26.83
2022-08-05T11:48:07.711Z,27.98
2022-08-05T11:49:15.602Z,28.22
2022-08-05T11:50:19.208Z,27.63
2022-08-05T11:51:44.078Z,26.99
2022-08-05T11:52:49.456Z,26.87
2022-08-05T11:53:53.816Z,26.29
2022-08-05T11:55:07.596Z,26.94
2022-08-05T11:56:13.879Z,25.48
2022-08-05T11:57:24.420Z,25.44
2022-08-05T11:58:30.279Z,25.74
2022-08-05T11:59:49.521Z,25.15
2022-08-05T12:01:00.855Z,24.68
2022-08-05T12:02:23.669Z,24.72
2022-08-05T12:03:31.541Z,24.95
2022-08-05T12:04:38.088Z,24.94
2022-08-05T12:05:46.129Z,25.70
2022-08-05T12:06:49.223Z,24.86
2022-08-05T12:08:10.444Z,24.64
2022-08-05T12:09:19.959Z,24.99
2022-08-05T12:10:42.840Z,25.20
2022-08-05T12:11:48.685Z,23.59
2022-08-05T12:12:59.942Z,23.43
2022-08-05T12:14:06.820Z,23.70
2022-08-05T12:15:19.156Z,24.26
2022-08-05T12:16:40.421Z,24.72
2022-08-05T12:18:03.832Z,23.41
2022-08-05T12:20:27.016Z,22.81
2022-08-05T12:20:38.783Z,22.40
2022-08-05T12:21:49.210Z,22.79
2022-08-05T12:22:52.441Z,22.65
2022-08-05T12:24:04.547Z,22.25
2022-08-05T12:25:09.076Z,22.59
2022-08-05T12:26:17.262Z,22.45
2022-08-05T12:27:25.541Z,22.43
2022-08-05T12:28:31.442Z,22.49
2022-08-05T12:29:37.976Z,22.50
2022-08-05T12:30:46.042Z,23.34
2022-08-05T12:31:53.023Z,22.91
2022-08-05T12:32:58.737Z,22.76
2022-08-05T12:34:20.256Z,23.30
2022-08-05T12:35:24.919Z,23.88
2022-08-05T12:36:43.892Z,21.28
2022-08-05T12:37:47.107Z,21.41
2022-08-05T12:38:51.341Z,22.52
2022-08-05T12:39:56.770Z,20.96
2022-08-05T12:41:12.282Z,21.31
2022-08-05T12:42:17.686Z,21.22
2022-08-05T12:43:21.282Z,21.61
2022-08-05T12:44:33.455Z,20.77
2022-08-05T12:45:48.286Z,20.78
2022-08-05T12:46:54.906Z,21.01
2022-08-05T12:48:01.752Z,20.25
2022-08-05T12:49:25.497Z,19.99
2022-08-05T12:50:30.831Z,19.92
2022-08-05T12:52:14.354Z,20.90
2022-08-05T12:53:15.674Z,20.47
2022-08-05T12:54:23.361Z,19.15
2022-08-05T12:55:33.000Z,19.42
2022-08-05T12:56:41.895Z,19.34
2022-08-05T12:58:49.831Z,20.81
2022-08-05T12:59:13.821Z,19.31
2022-08-05T13:02:00.554Z,17.86
2022-08-05T13:02:02.519Z,17.91
2022-08-05T13:03:08.073Z,18.09
2022-08-05T13:04:20.837Z,17.99
2022-08-05T13:05:24.970Z,19.07
2022-08-05T13:06:41.099Z,17.84
2022-08-05T13:07:59.981Z,18.10
2022-08-05T13:09:08.702Z,18.36
2022-08-05T13:10:19.869Z,18.66
2022-08-05T13:12:03.233Z,18.71
2022-08-05T13:12:57.730Z,18.52
2022-08-05T13:14:06.171Z,19.16
2022-08-05T13:15:18.064Z,19.39
2022-08-05T13:16:28.161Z,19.38
2022-08-05T13:17:41.754Z,19.19
2022-08-05T13:18:52.536Z,19.29
2022-08-05T13:20:00.969Z,19.85
2022-08-05T13:21:04.149Z,19.49
2022-08-05T13:22:07.513Z,18.56
2022-08-05T13:23:15.178Z,18.63
2022-08-05T13:24:27.809Z,18.98
2022-08-05T13:25:51.897Z,20.62
2022-08-05T13:27:02.815Z,18.50
2022-08-05T13:28:06.922Z,18.61
2022-08-05T13:29:19.121Z,18.50
2022-08-05T13:30:39.134Z,18.26
2022-08-05T13:32:04.971Z,20.52
2022-08-05T13:33:06.065Z,18.52
2022-08-05T13:34:24.241Z,18.75
2022-08-05T13:35:43.238Z,18.29
2022-08-05T13:36:52.176Z,18.12
2022-08-05T13:37:55.356Z,18.60
2022-08-05T13:38:59.005Z,18.59
2022-08-05T13:40:16.189Z,17.70
2022-08-05T13:41:25.713Z,17.37
2022-08-05T13:42:39.615Z,16.94
2022-08-05T13:43:54.743Z,17.34
2022-08-05T13:44:58.116Z,17.16
2022-08-05T13:46:02.457Z,17.35
2022-08-05T13:47:09.099Z,17.23
2022-08-05T13:48:57.792Z,17.42
2022-08-05T13:49:35.508Z,17.51
2022-08-05T13:50:38.576Z,17.71
2022-08-05T13:51:46.371Z,17.93
2022-08-05T13:52:50.117Z,18.00
2022-08-05T13:53:57.844Z,18.10
2022-08-05T13:55:01.339Z,18.36
2022-08-05T13:56:05.366Z,18.18
2022-08-05T13:57:22.529Z,18.19
2022-08-05T13:58:30.810Z,18.42
2022-08-05T13:59:34.457Z,18.60
2022-08-05T14:00:38.783Z,18.67
2022-08-05T14:01:56.318Z,18.76
2022-08-05T14:03:01.009Z,19.27
2022-08-05T14:04:26.611Z,19.09
2022-08-05T14:06:04.921Z,19.01
2022-08-05T14:06:58.892Z,18.59
2022-08-05T14:08:20.707Z,18.55
2022-08-05T14:09:24.659Z,18.38
2022-08-05T14:10:33.035Z,18.54
2022-08-05T14:12:03.920Z,18.21
2022-08-05T14:13:02.990Z,18.30
2022-08-05T14:14:06.277Z,18.33
2022-08-05T14:16:04.769Z,18.55
2022-08-05T14:16:32.590Z,18.21
2022-08-05T14:17:36.673Z,18.35
2022-08-05T14:18:39.604Z,18.29
2022-08-05T14:19:56.147Z,18.18
2022-08-05T14:21:00.227Z,18.21
2022-08-05T14:22:23.492Z,18.54
2022-08-05T14:23:36.679Z,18.14
2022-08-05T14:24:40.291Z,18.34
2022-08-05T14:25:44.968Z,18.38
2022-08-05T14:27:08.423Z,17.92
2022-08-05T14:28:26.263Z,17.79
2022-08-05T14:29:31.329Z,17.90
2022-08-05T14:30:34.511Z,17.61
2022-08-05T14:32:03.703Z,17.19
2022-08-05T14:33:02.066Z,17.25
2022-08-05T14:34:06.707Z,17.24
2022-08-05T14:35:15.001Z,17.29
2022-08-05T14:36:21.428Z,17.41
2022-08-05T14:37:42.161Z,17.62
2022-08-05T14:38:47.981Z,18.40
2022-08-05T14:39:56.916Z,17.97
2022-08-05T14:41:05.957Z,18.53
2022-08-05T14:42:20.927Z,18.50
2022-08-05T14:43:58.833Z,18.35
2022-08-05T14:44:48.362Z,16.92
2022-08-05T14:45:51.846Z,17.66
2022-08-05T14:46:56.531Z,16.25
2022-08-05T14:48:05.065Z,16.04
2022-08-05T14:49:09.430Z,16.00
2022-08-05T14:50:18.146Z,16.21
2022-08-05T14:51:22.120Z,16.30
2022-08-05T14:52:50.496Z,16.50
2022-08-05T14:54:26.564Z,16.57
2022-08-05T14:55:24.505Z,17.44
2022-08-05T14:56:27.759Z,17.10
2022-08-05T14:57:53.924Z,16.52
2022-08-05T14:58:55.103Z,16.91
2022-08-05T14:59:58.429Z,16.74
2022-08-05T15:01:02.142Z,16.47
2022-08-05T15:02:15.914Z,16.58
2022-08-05T15:03:19.299Z,16.79
2022-08-05T15:04:27.310Z,16.72
2022-08-05T15:06:07.341Z,17.05
2022-08-05T15:06:55.739Z,17.07
2022-08-05T15:08:12.206Z,16.97
2022-08-05T15:09:52.368Z,16.97
2022-08-05T15:10:46.258Z,17.22
2022-08-05T15:11:52.347Z,17.11
2022-08-05T15:13:03.630Z,17.30
2022-08-05T15:14:07.448Z,17.40
2022-08-05T15:15:15.302Z,17.59
2022-08-05T15:16:18.661Z,17.61
2022-08-05T15:17:46.869Z,17.89
2022-08-05T15:18:47.279Z,18.10
2022-08-05T15:19:50.313Z,18.03
2022-08-05T15:20:58.197Z,17.87
2022-08-05T15:22:11.072Z,17.69
2022-08-05T15:23:14.358Z,17.81
2022-08-05T15:24:17.639Z,18.38